createdAt,value
2018-07-28T00:01:16.981Z,7.53
2018-07-28T00:03:44.578Z,7.50
2018-07-28T00:06:12.225Z,6.83
2018-07-28T00:08:39.889Z,7.70
2018-07-28T00:11:07.505Z,7.30
2018-07-28T00:13:35.117Z,7.27
2018-07-28T00:16:02.710Z,7.40
2018-07-28T00:18:30.323Z,7.73
2018-07-28T00:20:57.930Z,7.30
2018-07-28T00:23:25.527Z,8.03
2018-07-28T00:25:58.268Z,7.53
2018-07-28T00:28:25.830Z,7.50
2018-07-28T00:30:53.467Z,8.03
2018-07-28T00:33:22.273Z,7.30
2018-07-28T00:35:49.873Z,6.73
2018-07-28T00:38:17.509Z,7.30
2018-07-28T00:40:45.105Z,7.50
2018-07-28T00:43:12.716Z,7.60
2018-07-28T00:45:40.323Z,7.73
2018-07-28T00:48:07.915Z,7.70
2018-07-28T00:50:35.520Z,7.00
2018-07-28T00:53:03.123Z,7.40
2018-07-28T00:55:30.754Z,7.60
2018-07-28T00:57:58.344Z,7.93
2018-07-28T01:00:26.206Z,7.87
2018-07-28T01:02:53.823Z,8.57
2018-07-28T01:05:21.427Z,8.23
2018-07-28T01:07:49.005Z,8.10
2018-07-28T01:10:16.598Z,8.20
2018-07-28T01:12:44.220Z,7.93
2018-07-28T01:15:12.860Z,7.50
2018-07-28T01:17:40.562Z,7.70
2018-07-28T01:20:09.508Z,8.30
2018-07-28T01:22:37.652Z,7.30
2018-07-28T01:25:05.803Z,7.60
2018-07-28T01:27:33.386Z,7.93
2018-07-28T01:30:01.011Z,8.23
2018-07-28T01:32:28.633Z,9.17
2018-07-28T01:34:56.216Z,8.30
2018-07-28T01:37:23.900Z,8.77
2018-07-28T01:39:51.508Z,8.27
2018-07-28T01:42:19.126Z,8.33
2018-07-28T01:44:46.720Z,7.07
2018-07-28T01:47:14.313Z,9.37
2018-07-28T01:49:41.933Z,8.90
2018-07-28T01:52:09.572Z,8.67
2018-07-28T01:54:37.192Z,8.60
2018-07-28T01:57:04.792Z,8.40
2018-07-28T01:59:32.368Z,8.50
2018-07-28T02:01:59.991Z,8.07
2018-07-28T02:04:27.579Z,9.47
2018-07-28T02:06:55.181Z,8.50
2018-07-28T02:09:22.794Z,8.43
2018-07-28T02:11:50.390Z,8.83
2018-07-28T02:14:18.119Z,8.37
2018-07-28T02:16:45.692Z,9.60
2018-07-28T02:19:13.280Z,8.13
2018-07-28T02:21:40.863Z,8.03
2018-07-28T02:24:08.467Z,7.90
2018-07-28T02:26:36.160Z,8.63
2018-07-28T02:29:03.765Z,9.17
2018-07-28T02:31:31.445Z,7.83
2018-07-28T02:33:59.016Z,8.60
2018-07-28T02:36:26.626Z,8.40
2018-07-28T02:38:54.294Z,8.20
2018-07-28T02:41:21.875Z,7.40
2018-07-28T02:43:49.485Z,8.73
2018-07-28T02:46:17.088Z,8.77
2018-07-28T02:48:44.665Z,8.90
2018-07-28T02:51:12.268Z,8.17
2018-07-28T02:53:43.977Z,9.23
2018-07-28T02:56:11.998Z,8.50
2018-07-28T02:58:39.962Z,9.10
2018-07-28T03:01:07.871Z,8.50
2018-07-28T03:03:35.454Z,9.10
2018-07-28T03:06:03.101Z,8.87
2018-07-28T03:08:30.729Z,8.50
2018-07-28T03:10:58.614Z,8.70
2018-07-28T03:13:26.222Z,9.17
2018-07-28T03:15:53.816Z,9.10
2018-07-28T03:18:21.429Z,8.93
2018-07-28T03:20:49.032Z,8.87
2018-07-28T03:23:16.625Z,9.27
2018-07-28T03:25:44.263Z,9.27
2018-07-28T03:28:11.862Z,9.47
2018-07-28T03:30:39.432Z,9.47
2018-07-28T03:33:07.076Z,8.87
2018-07-28T03:35:34.676Z,8.53
2018-07-28T03:38:02.287Z,9.20
2018-07-28T03:40:29.931Z,9.70
2018-07-28T03:42:57.531Z,9.27
2018-07-28T03:45:25.167Z,9.70
2018-07-28T03:47:52.783Z,9.40
2018-07-28T03:50:20.389Z,9.03
2018-07-28T03:52:47.978Z,8.90
2018-07-28T03:55:15.593Z,8.50
2018-07-28T03:57:43.230Z,8.90
2018-07-28T04:00:12.208Z,9.80
2018-07-28T04:02:40.134Z,9.67
2018-07-28T04:05:09.318Z,10.27
2018-07-28T04:07:37.022Z,9.70
2018-07-28T04:10:04.948Z,8.70
2018-07-28T04:12:32.593Z,9.10
2018-07-28T04:15:00.227Z,9.57
2018-07-28T04:17:27.963Z,10.00
2018-07-28T04:19:55.539Z,9.00
2018-07-28T04:22:23.230Z,8.70
2018-07-28T04:24:50.816Z,8.57
2018-07-28T04:27:18.422Z,9.20
2018-07-28T04:29:46.046Z,9.60
2018-07-28T04:32:13.634Z,9.70
2018-07-28T04:34:41.237Z,9.23
2018-07-28T04:37:08.889Z,9.33
2018-07-28T04:39:36.455Z,9.30
2018-07-28T04:42:04.070Z,9.30
2018-07-28T04:44:31.633Z,11.57
2018-07-28T04:46:59.239Z,9.67
2018-07-28T04:49:26.808Z,9.70
2018-07-28T04:51:54.391Z,9.73
2018-07-28T04:54:21.998Z,9.33
2018-07-28T04:56:49.566Z,10.80
2018-07-28T04:59:17.132Z,10.83
2018-07-28T05:01:44.719Z,10.63
2018-07-28T05:04:12.344Z,9.77
2018-07-28T05:06:39.954Z,9.90
2018-07-28T05:09:08.578Z,10.27
2018-07-28T05:11:36.150Z,10.23
2018-07-28T05:14:04.459Z,10.00
2018-07-28T05:16:32.045Z,11.43
2018-07-28T05:18:59.641Z,11.20
2018-07-28T05:21:27.223Z,10.77
2018-07-28T05:23:54.820Z,11.10
2018-07-28T05:26:22.385Z,11.83
2018-07-28T05:28:49.948Z,11.63
2018-07-28T05:31:20.429Z,11.67
2018-07-28T05:33:48.004Z,11.93
2018-07-28T05:36:15.582Z,10.07
2018-07-28T05:38:43.224Z,11.00
2018-07-28T05:41:10.834Z,11.30
2018-07-28T05:43:38.442Z,11.10
2018-07-28T05:46:06.020Z,10.77
2018-07-28T05:48:33.620Z,10.60
2018-07-28T05:51:01.265Z,11.17
2018-07-28T05:53:28.865Z,11.27
2018-07-28T05:55:56.474Z,9.80
2018-07-28T05:58:24.085Z,11.70
2018-07-28T06:00:51.727Z,10.87
2018-07-28T06:03:19.333Z,12.40
2018-07-28T06:05:46.970Z,12.60
2018-07-28T06:08:14.577Z,10.60
2018-07-28T06:10:42.201Z,11.63
2018-07-28T06:13:09.792Z,10.57
2018-07-28T06:15:37.385Z,11.30
2018-07-28T06:18:05.034Z,11.87
2018-07-28T06:20:32.638Z,12.30
2018-07-28T06:23:00.231Z,11.10
2018-07-28T06:25:27.828Z,11.50
2018-07-28T06:27:55.491Z,10.50
2018-07-28T06:30:23.099Z,11.03
2018-07-28T06:32:50.737Z,10.33
2018-07-28T06:35:18.373Z,10.80
2018-07-28T06:37:45.956Z,12.10
2018-07-28T06:40:13.551Z,10.53
2018-07-28T06:42:41.164Z,11.07
2018-07-28T06:45:08.795Z,10.67
2018-07-28T06:47:36.406Z,10.80
2018-07-28T06:50:04.093Z,10.40
2018-07-28T06:52:31.747Z,10.40
2018-07-28T06:54:59.369Z,10.80
2018-07-28T06:57:26.990Z,10.07
2018-07-28T06:59:54.693Z,11.20
2018-07-28T07:02:22.298Z,10.67
2018-07-28T07:04:50.018Z,9.80
2018-07-28T07:07:17.577Z,11.17
2018-07-28T07:09:45.172Z,10.60
2018-07-28T07:12:12.822Z,10.33
2018-07-28T07:14:40.449Z,11.00
2018-07-28T07:17:08.048Z,11.13
2018-07-28T07:19:35.677Z,10.53
2018-07-28T07:22:03.362Z,11.13
2018-07-28T07:24:31.013Z,10.60
2018-07-28T07:26:58.608Z,9.63
2018-07-28T07:29:26.207Z,10.67
2018-07-28T07:31:53.859Z,10.03
2018-07-28T07:34:21.464Z,11.53
2018-07-28T07:36:49.054Z,10.27
2018-07-28T07:39:16.633Z,11.77
2018-07-28T07:41:44.258Z,11.33
2018-07-28T07:44:11.895Z,10.40
2018-07-28T07:46:39.637Z,11.20
2018-07-28T07:49:07.266Z,9.93
2018-07-28T07:51:34.849Z,10.73
2018-07-28T07:54:02.457Z,10.13
2018-07-28T07:56:30.031Z,10.63
2018-07-28T07:58:57.625Z,11.33
2018-07-28T08:01:25.206Z,9.60
2018-07-28T08:03:53.198Z,10.97
2018-07-28T08:06:20.812Z,10.10
2018-07-28T08:08:48.496Z,10.30
2018-07-28T08:11:16.127Z,9.67
2018-07-28T08:13:43.687Z,9.60
2018-07-28T08:16:11.269Z,9.70
2018-07-28T08:18:38.833Z,8.93
2018-07-28T08:21:06.454Z,10.00
2018-07-28T08:23:34.162Z,9.33
2018-07-28T08:26:01.759Z,9.67
2018-07-28T08:28:29.340Z,10.10
2018-07-28T08:30:56.901Z,9.43
2018-07-28T08:33:24.612Z,10.13
2018-07-28T08:35:52.204Z,9.10
2018-07-28T08:38:19.835Z,10.10
2018-07-28T08:43:21.548Z,8.37
2018-07-28T08:45:49.137Z,9.00
2018-07-28T08:48:16.736Z,9.63
2018-07-28T08:50:44.344Z,8.80
2018-07-28T08:53:12.050Z,8.57
2018-07-28T08:55:39.615Z,8.90
2018-07-28T08:58:07.258Z,10.50
2018-07-28T09:00:34.829Z,9.50
2018-07-28T09:03:02.453Z,9.37
2018-07-28T09:05:30.104Z,8.37
2018-07-28T09:07:57.691Z,9.37
2018-07-28T09:10:25.268Z,8.63
2018-07-28T09:12:52.880Z,10.37
2018-07-28T09:15:20.445Z,9.60
2018-07-28T09:17:48.030Z,9.50
2018-07-28T09:20:15.731Z,10.60
2018-07-28T09:22:43.346Z,10.17
2018-07-28T09:25:10.915Z,10.43
2018-07-28T09:27:38.569Z,9.60
2018-07-28T09:30:06.680Z,10.17
2018-07-28T09:32:34.286Z,9.27
2018-07-28T09:35:01.882Z,9.00
2018-07-28T09:37:29.479Z,10.00
2018-07-28T09:39:57.109Z,9.50
2018-07-28T09:42:24.724Z,9.40
2018-07-28T09:44:52.298Z,9.80
2018-07-28T09:47:19.901Z,9.43
2018-07-28T09:49:47.504Z,9.83
2018-07-28T09:52:15.107Z,10.53
2018-07-28T09:54:42.721Z,10.37
2018-07-28T09:57:10.326Z,10.20
2018-07-28T09:59:37.928Z,11.20
2018-07-28T10:02:05.540Z,11.57
2018-07-28T10:04:33.149Z,10.90
2018-07-28T10:07:00.756Z,10.00
2018-07-28T10:09:28.363Z,10.20
2018-07-28T10:11:55.961Z,9.77
2018-07-28T10:14:23.547Z,10.33
2018-07-28T10:16:51.120Z,11.37
2018-07-28T10:19:18.711Z,10.10
2018-07-28T10:21:46.311Z,9.17
2018-07-28T10:24:13.919Z,9.40
2018-07-28T10:26:41.634Z,10.23
2018-07-28T10:29:09.217Z,9.93
2018-07-28T10:31:36.861Z,9.70
2018-07-28T10:34:04.525Z,9.77
2018-07-28T10:36:32.393Z,9.50
2018-07-28T10:38:59.968Z,9.70
2018-07-28T10:41:27.557Z,8.90
2018-07-28T10:43:55.158Z,9.80
2018-07-28T10:46:22.779Z,9.23
2018-07-28T10:48:51.470Z,8.73
2018-07-28T10:51:19.084Z,8.57
2018-07-28T10:53:46.769Z,8.80
2018-07-28T10:56:14.725Z,9.27
2018-07-28T10:58:42.964Z,8.10
2018-07-28T11:01:10.556Z,8.20
2018-07-28T11:03:38.166Z,8.13
2018-07-28T11:06:05.771Z,7.77
2018-07-28T11:08:33.448Z,8.00
2018-07-28T11:11:01.055Z,7.73
2018-07-28T11:13:28.655Z,8.23
2018-07-28T11:15:56.304Z,8.20
2018-07-28T11:18:23.907Z,7.70
2018-07-28T11:20:51.539Z,7.57
2018-07-28T11:23:24.636Z,7.90
2018-07-28T11:25:52.322Z,7.80
2018-07-28T11:28:19.948Z,7.93
2018-07-28T11:30:47.514Z,8.20
2018-07-28T11:33:20.530Z,8.23
2018-07-28T11:35:53.497Z,7.50
2018-07-28T11:38:26.539Z,7.97
2018-07-28T11:40:59.661Z,8.87
2018-07-28T11:43:32.864Z,7.77
2018-07-28T11:46:00.608Z,8.57
2018-07-28T11:48:28.185Z,7.83
2018-07-28T11:50:55.828Z,7.47
2018-07-28T11:53:23.417Z,8.80
2018-07-28T11:55:50.992Z,7.77
2018-07-28T11:58:18.579Z,7.60
2018-07-28T12:00:46.207Z,8.50
2018-07-28T12:03:13.873Z,8.17
2018-07-28T12:05:41.524Z,6.90
2018-07-28T12:08:09.144Z,7.43
2018-07-28T12:10:36.835Z,8.00
2018-07-28T12:13:04.402Z,8.73
2018-07-28T12:15:32.011Z,7.20
2018-07-28T12:17:59.657Z,8.00
2018-07-28T12:20:27.287Z,7.27
2018-07-28T12:22:54.832Z,7.07
2018-07-28T12:25:22.401Z,7.43
2018-07-28T12:27:50.097Z,7.10
2018-07-28T12:30:17.738Z,7.63
2018-07-28T12:32:45.401Z,7.43
2018-07-28T12:35:13.019Z,8.20
2018-07-28T12:37:40.598Z,7.93
2018-07-28T12:40:08.178Z,7.97
2018-07-28T12:42:35.748Z,7.17
2018-07-28T12:45:03.438Z,7.27
2018-07-28T12:47:31.003Z,7.53
2018-07-28T12:49:58.756Z,7.13
2018-07-28T12:52:26.373Z,7.60
2018-07-28T12:54:59.295Z,6.73
2018-07-28T12:57:27.526Z,7.60
2018-07-28T12:59:55.104Z,7.27
2018-07-28T13:02:22.724Z,8.20
2018-07-28T13:04:50.921Z,7.23
2018-07-28T13:07:18.523Z,8.07
2018-07-28T13:09:46.168Z,6.70
2018-07-28T13:12:13.757Z,7.47
2018-07-28T13:14:41.396Z,7.57
2018-07-28T13:17:09.106Z,7.47
2018-07-28T13:19:36.670Z,7.00
2018-07-28T13:22:04.290Z,7.70
2018-07-28T13:24:31.868Z,7.13
2018-07-28T13:26:59.492Z,7.77
2018-07-28T13:29:27.092Z,15.50
2018-07-28T13:31:54.744Z,7.63
2018-07-28T13:34:22.329Z,7.77
2018-07-28T13:36:49.946Z,7.20
2018-07-28T13:39:17.515Z,6.60
2018-07-28T13:41:45.121Z,6.80
2018-07-28T13:44:12.707Z,6.40
2018-07-28T13:46:40.285Z,6.67
2018-07-28T13:49:07.953Z,6.90
2018-07-28T13:51:35.549Z,6.40
2018-07-28T13:54:03.257Z,6.50
2018-07-28T13:56:30.859Z,6.23
2018-07-28T13:58:58.503Z,6.00
2018-07-28T14:01:26.107Z,6.70
2018-07-28T14:03:53.745Z,6.20
2018-07-28T14:06:21.397Z,6.10
2018-07-28T14:08:49.080Z,7.07
2018-07-28T14:11:16.734Z,6.20
2018-07-28T14:13:44.381Z,5.50
2018-07-28T14:16:12.056Z,6.77
2018-07-28T14:18:39.756Z,6.03
2018-07-28T14:21:07.471Z,5.80
2018-07-28T14:23:35.126Z,6.03
2018-07-28T14:26:02.925Z,6.77
2018-07-28T14:28:30.518Z,6.50
2018-07-28T14:30:58.244Z,6.70
2018-07-28T14:33:25.815Z,6.20
2018-07-28T14:35:53.455Z,5.83
2018-07-28T14:38:21.189Z,6.07
2018-07-28T14:40:48.780Z,6.17
2018-07-28T14:43:16.684Z,6.13
2018-07-28T14:45:44.308Z,6.07
2018-07-28T14:48:11.975Z,6.40
2018-07-28T14:50:39.609Z,6.53
2018-07-28T14:53:07.529Z,6.10
2018-07-28T14:55:35.232Z,6.97
2018-07-28T14:58:02.838Z,6.67
2018-07-28T15:00:30.480Z,6.53
2018-07-28T15:02:58.122Z,5.67
2018-07-28T15:05:25.697Z,6.33
2018-07-28T15:07:53.300Z,6.07
2018-07-28T15:10:20.931Z,6.27
2018-07-28T15:12:48.591Z,6.50
2018-07-28T15:15:16.242Z,5.60
2018-07-28T15:17:43.856Z,6.27
2018-07-28T15:20:11.472Z,6.27
2018-07-28T15:22:39.108Z,5.90
2018-07-28T15:25:06.821Z,6.20
2018-07-28T15:27:34.447Z,6.40
2018-07-28T15:30:02.072Z,6.23
2018-07-28T15:32:29.805Z,5.97
2018-07-28T15:34:57.426Z,6.47
2018-07-28T15:37:25.141Z,6.50
2018-07-28T15:39:52.981Z,6.37
2018-07-28T15:42:20.603Z,7.20
2018-07-28T15:44:48.242Z,5.73
2018-07-28T15:47:15.866Z,5.83
2018-07-28T15:49:43.538Z,6.20
2018-07-28T15:52:11.172Z,6.80
2018-07-28T15:54:38.767Z,6.50
2018-07-28T15:57:06.390Z,6.10
2018-07-28T15:59:34.064Z,6.03
2018-07-28T16:02:01.675Z,7.50
2018-07-28T16:04:29.286Z,7.00
2018-07-28T16:06:56.952Z,7.27
2018-07-28T16:09:24.559Z,6.20
2018-07-28T16:11:52.168Z,6.30
2018-07-28T16:14:19.847Z,6.27
2018-07-28T16:16:47.531Z,6.60
2018-07-28T16:19:15.322Z,6.47
2018-07-28T16:21:42.916Z,7.33
2018-07-28T16:24:10.508Z,6.20
2018-07-28T16:26:38.137Z,6.80
2018-07-28T16:29:05.728Z,6.77
2018-07-28T16:31:33.375Z,6.90
2018-07-28T16:34:00.992Z,6.60
2018-07-28T16:36:28.616Z,6.33
2018-07-28T16:38:56.435Z,7.17
2018-07-28T16:41:24.040Z,7.20
2018-07-28T16:43:51.687Z,6.80
2018-07-28T16:46:19.302Z,6.80
2018-07-28T16:48:46.936Z,6.80
2018-07-28T16:51:14.741Z,6.30
2018-07-28T16:53:42.276Z,6.73
2018-07-28T16:56:09.876Z,6.80
2018-07-28T16:58:37.486Z,6.53
2018-07-28T17:01:05.234Z,6.83
2018-07-28T17:03:32.897Z,7.27
2018-07-28T17:06:00.530Z,6.87
2018-07-28T17:08:28.113Z,6.60
2018-07-28T17:10:55.715Z,7.60
2018-07-28T17:13:23.304Z,7.13
2018-07-28T17:15:50.915Z,6.90
2018-07-28T17:18:18.576Z,6.57
2018-07-28T17:20:46.181Z,7.20
2018-07-28T17:23:13.805Z,6.80
2018-07-28T17:25:41.355Z,6.70
2018-07-28T17:28:08.949Z,7.40
2018-07-28T17:30:36.657Z,7.30
2018-07-28T17:33:04.316Z,7.13
2018-07-28T17:35:31.917Z,8.57
2018-07-28T17:37:59.525Z,7.30
2018-07-28T17:40:27.113Z,7.60
2018-07-28T17:42:54.712Z,7.50
2018-07-28T17:45:22.314Z,7.03
2018-07-28T17:47:49.920Z,7.50
2018-07-28T17:50:17.480Z,8.10
2018-07-28T17:52:45.108Z,8.17
2018-07-28T17:55:12.761Z,9.57
2018-07-28T17:57:40.376Z,10.00
2018-07-28T18:00:08.550Z,10.57
2018-07-28T18:02:37.157Z,7.50
2018-07-28T18:05:05.187Z,7.70
2018-07-28T18:07:32.905Z,8.03
2018-07-28T18:10:00.559Z,7.63
2018-07-28T18:12:28.141Z,8.30
2018-07-28T18:14:55.807Z,8.33
2018-07-28T18:17:23.434Z,8.70
2018-07-28T18:19:51.000Z,10.53
2018-07-28T18:22:18.596Z,14.43
2018-07-28T18:24:46.211Z,12.70
2018-07-28T18:27:13.853Z,12.33
2018-07-28T18:29:41.400Z,10.30
2018-07-28T18:32:09.080Z,10.27
2018-07-28T18:34:36.720Z,7.70
2018-07-28T18:37:04.332Z,7.70
2018-07-28T18:39:31.994Z,8.07
2018-07-28T18:41:59.621Z,7.37
2018-07-28T18:44:27.237Z,7.53
2018-07-28T18:46:54.865Z,7.53
2018-07-28T18:49:22.519Z,7.27
2018-07-28T18:51:50.245Z,7.03
2018-07-28T18:54:17.871Z,7.00
2018-07-28T18:56:45.580Z,8.13
2018-07-28T18:59:13.210Z,6.93
2018-07-28T19:01:40.909Z,7.30
2018-07-28T19:04:08.562Z,7.50
2018-07-28T19:06:36.232Z,6.30
2018-07-28T19:09:09.307Z,6.77
2018-07-28T19:11:37.126Z,6.53
2018-07-28T19:14:10.078Z,6.30
2018-07-28T19:16:37.756Z,6.20
2018-07-28T19:19:10.672Z,6.13
2018-07-28T19:21:44.858Z,6.40
2018-07-28T19:24:12.477Z,5.90
2018-07-28T19:26:40.080Z,7.10
2018-07-28T19:29:12.946Z,6.40
2018-07-28T19:31:40.572Z,6.70
2018-07-28T19:34:08.207Z,7.53
2018-07-28T19:36:41.343Z,7.60
2018-07-28T19:39:09.888Z,7.47
2018-07-28T19:41:42.828Z,7.10
2018-07-28T19:44:11.214Z,7.40
2018-07-28T19:46:38.825Z,6.30
2018-07-28T19:49:06.596Z,6.23
2018-07-28T19:51:34.191Z,7.20
2018-07-28T19:54:01.929Z,6.77
2018-07-28T19:56:29.564Z,7.00
2018-07-28T19:58:57.177Z,6.50
2018-07-28T20:01:24.775Z,6.80
2018-07-28T20:03:52.399Z,7.17
2018-07-28T20:06:19.993Z,7.23
2018-07-28T20:08:47.839Z,6.83
2018-07-28T20:11:15.536Z,7.57
2018-07-28T20:13:43.581Z,6.80
2018-07-28T20:16:11.221Z,6.87
2018-07-28T20:18:38.845Z,7.13
2018-07-28T20:21:06.430Z,6.80
2018-07-28T20:23:34.013Z,7.37
2018-07-28T20:26:02.780Z,6.90
2018-07-28T20:28:30.476Z,6.90
2018-07-28T20:30:58.571Z,7.57
2018-07-28T20:33:26.182Z,7.20
2018-07-28T20:35:54.113Z,6.97
2018-07-28T20:38:22.292Z,7.00
2018-07-28T20:40:49.929Z,6.90
2018-07-28T20:43:17.499Z,7.53
2018-07-28T20:45:45.091Z,7.47
2018-07-28T20:48:12.706Z,6.70
2018-07-28T20:50:40.341Z,7.13
2018-07-28T20:53:08.206Z,7.80
2018-07-28T20:55:35.813Z,6.80
2018-07-28T20:58:03.418Z,7.77
2018-07-28T21:00:31.001Z,7.67
2018-07-28T21:02:58.633Z,6.80
2018-07-28T21:05:26.262Z,7.30
2018-07-28T21:07:53.827Z,7.40
2018-07-28T21:10:21.421Z,7.50
2018-07-28T21:12:49.001Z,7.57
2018-07-28T21:15:16.747Z,7.10
2018-07-28T21:17:44.485Z,7.63
2018-07-28T21:20:12.097Z,7.47
2018-07-28T21:22:39.738Z,7.60
2018-07-28T21:25:07.528Z,7.93
2018-07-28T21:27:35.190Z,7.37
2018-07-28T21:30:02.862Z,7.83
2018-07-28T21:32:30.872Z,8.20
2018-07-28T21:34:58.473Z,8.03
2018-07-28T21:37:26.085Z,7.90
2018-07-28T21:39:54.082Z,7.63
2018-07-28T21:42:21.680Z,7.30
2018-07-28T21:44:49.351Z,7.30
2018-07-28T21:47:16.990Z,7.73
2018-07-28T21:49:44.592Z,8.57
2018-07-28T21:52:12.202Z,8.57
2018-07-28T21:54:39.851Z,8.27
2018-07-28T21:57:07.509Z,8.50
2018-07-28T21:59:35.182Z,8.30
2018-07-28T22:02:03.047Z,8.83
2018-07-28T22:04:32.972Z,8.27
2018-07-28T22:07:00.613Z,8.50
2018-07-28T22:09:28.194Z,7.83
2018-07-28T22:11:55.780Z,8.40
2018-07-28T22:14:23.378Z,8.20
2018-07-28T22:16:50.945Z,9.00
2018-07-28T22:19:18.545Z,7.70
2018-07-28T22:21:46.152Z,8.47
2018-07-28T22:24:14.021Z,8.70
2018-07-28T22:26:41.668Z,8.80
2018-07-28T22:29:09.261Z,8.73
2018-07-28T22:31:36.895Z,8.47
2018-07-28T22:34:04.489Z,8.63
2018-07-28T22:36:32.185Z,8.30
2018-07-28T22:38:59.809Z,8.47
2018-07-28T22:41:27.389Z,8.50
2018-07-28T22:43:54.952Z,9.17
2018-07-28T22:46:22.535Z,9.40
2018-07-28T22:48:50.144Z,8.97
2018-07-28T22:51:17.718Z,8.60
2018-07-28T22:53:45.298Z,8.13
2018-07-28T22:56:12.861Z,8.33
2018-07-28T22:58:40.458Z,8.83
2018-07-28T23:01:08.076Z,8.90
2018-07-28T23:03:35.618Z,8.37
2018-07-28T23:06:03.233Z,9.03
2018-07-28T23:08:30.813Z,9.13
2018-07-28T23:10:58.393Z,9.50
2018-07-28T23:13:25.997Z,9.67
2018-07-28T23:15:53.604Z,10.17
2018-07-28T23:18:21.221Z,10.70
2018-07-28T23:20:48.827Z,10.00
2018-07-28T23:23:16.428Z,9.90
2018-07-28T23:25:44.036Z,9.90
2018-07-28T23:28:11.653Z,9.97
2018-07-28T23:30:39.243Z,10.20
2018-07-28T23:33:06.828Z,11.30
2018-07-28T23:35:34.470Z,10.77
2018-07-28T23:38:02.088Z,9.70
2018-07-28T23:40:29.686Z,11.53
2018-07-28T23:42:57.275Z,10.60
2018-07-28T23:45:24.856Z,10.90
2018-07-28T23:47:52.467Z,10.70
2018-07-28T23:50:20.162Z,11.40
2018-07-28T23:52:47.757Z,11.10
2018-07-28T23:55:15.348Z,10.30
2018-07-28T23:57:42.949Z,10.60
